sensor_id;sensor_type;location;lat;lon;timestamp;pressure;altitude;pressure_sealevel;temperature;humidity
67987;BME280;54767;53.800;15.956;2023-03-01T06:54:23;101558.68;;;-2.93;80.09
67987;BME280;54767;53.800;15.956;2023-03-01T06:56:52;101549.92;;;-2.91;79.88
67987;BME280;54767;53.800;15.956;2023-03-01T06:59:20;101554.08;;;-2.82;79.95
67987;BME280;54767;53.800;15.956;2023-03-01T07:01:48;101548.87;;;-2.71;79.76
67987;BME280;54767;53.800;15.956;2023-03-01T07:04:17;101547.08;;;-2.59;79.85
67987;BME280;54767;53.800;15.956;2023-03-01T07:06:45;101546.92;;;-2.47;79.85
67987;BME280;54767;53.800;15.956;2023-03-01T07:09:13;101545.38;;;-2.36;79.70
67987;BME280;54767;53.800;15.956;2023-03-01T07:11:41;101544.41;;;-2.26;79.92
67987;BME280;54767;53.800;15.956;2023-03-01T07:14:09;101540.58;;;-2.17;79.56
67987;BME280;54767;53.800;15.956;2023-03-01T07:16:37;101541.75;;;-2.06;79.33
67987;BME280;54767;53.800;15.956;2023-03-01T07:19:05;101538.68;;;-1.94;79.33
67987;BME280;54767;53.800;15.956;2023-03-01T07:21:33;101537.90;;;-1.84;79.26
67987;BME280;54767;53.800;15.956;2023-03-01T07:24:02;101539.05;;;-1.72;79.38
67987;BME280;54767;53.800;15.956;2023-03-01T07:26:30;101535.89;;;-1.64;79.49
67987;BME280;54767;53.800;15.956;2023-03-01T07:28:59;101533.95;;;-1.57;79.22
67987;BME280;54767;53.800;15.956;2023-03-01T07:31:28;101534.11;;;-1.50;79.48
67987;BME280;54767;53.800;15.956;2023-03-01T07:33:56;101535.70;;;-1.43;79.43
67987;BME280;54767;53.800;15.956;2023-03-01T07:36:25;101534.27;;;-1.33;79.15
67987;BME280;54767;53.800;15.956;2023-03-01T07:38:53;101533.96;;;-1.25;79.22
67987;BME280;54767;53.800;15.956;2023-03-01T07:41:23;101530.98;;;-1.19;79.28
67987;BME280;54767;53.800;15.956;2023-03-01T07:43:51;101533.61;;;-1.13;79.15
67987;BME280;54767;53.800;15.956;2023-03-01T07:46:19;101536.08;;;-1.07;79.31
67987;BME280;54767;53.800;15.956;2023-03-01T07:48:48;101542.48;;;-0.99;79.10
67987;BME280;54767;53.800;15.956;2023-03-01T07:51:16;101547.30;;;-0.92;78.92
67987;BME280;54767;53.800;15.956;2023-03-01T07:53:47;101545.02;;;-0.85;78.90
67987;BME280;54767;53.800;15.956;2023-03-01T07:56:16;101539.70;;;-0.80;78.74
67987;BME280;54767;53.800;15.956;2023-03-01T07:58:45;101543.83;;;-0.78;78.84
67987;BME280;54767;53.800;15.956;2023-03-01T08:01:18;101543.98;;;-0.75;78.69
67987;BME280;54767;53.800;15.956;2023-03-01T08:03:47;101544.65;;;-0.70;78.69
67987;BME280;54767;53.800;15.956;2023-03-01T08:06:17;101547.75;;;-0.65;78.84
67987;BME280;54767;53.800;15.956;2023-03-01T08:08:45;101544.95;;;-0.58;78.75
67987;BME280;54767;53.800;15.956;2023-03-01T08:11:14;101548.77;;;-0.53;78.64
67987;BME280;54767;53.800;15.956;2023-03-01T08:13:43;101556.05;;;-0.49;78.59
67987;BME280;54767;53.800;15.956;2023-03-01T08:16:13;101554.04;;;-0.46;78.73
67987;BME280;54767;53.800;15.956;2023-03-01T08:18:43;101554.67;;;-0.44;78.54
67987;BME280;54767;53.800;15.956;2023-03-01T08:21:16;101556.63;;;-0.41;78.51
67987;BME280;54767;53.800;15.956;2023-03-01T08:23:45;101551.67;;;-0.35;78.62
67987;BME280;54767;53.800;15.956;2023-03-01T08:26:18;101548.16;;;-0.28;78.48
67987;BME280;54767;53.800;15.956;2023-03-01T08:28:48;101550.12;;;-0.22;78.48
67987;BME280;54767;53.800;15.956;2023-03-01T08:31:27;101551.95;;;-0.18;78.38
67987;BME280;54767;53.800;15.956;2023-03-01T08:33:58;101554.41;;;-0.14;78.56
67987;BME280;54767;53.800;15.956;2023-03-01T08:36:29;101554.14;;;-0.11;78.66
67987;BME280;54767;53.800;15.956;2023-03-01T08:38:59;101554.70;;;-0.05;78.51
67987;BME280;54767;53.800;15.956;2023-03-01T08:41:28;101556.08;;;0.00;78.34
67987;BME280;54767;53.800;15.956;2023-03-01T08:43:56;101548.16;;;0.06;78.35
67987;BME280;54767;53.800;15.956;2023-03-01T08:46:30;101549.46;;;0.10;78.64
67987;BME280;54767;53.800;15.956;2023-03-01T08:48:59;101550.58;;;0.14;78.30
67987;BME280;54767;53.800;15.956;2023-03-01T08:51:27;101551.15;;;0.17;78.37
67987;BME280;54767;53.800;15.956;2023-03-01T08:53:57;101551.77;;;0.21;78.45
67987;BME280;54767;53.800;15.956;2023-03-01T08:56:25;101554.54;;;0.27;78.63
67987;BME280;54767;53.800;15.956;2023-03-01T08:58:53;101558.92;;;0.34;78.32
67987;BME280;54767;53.800;15.956;2023-03-01T09:01:21;101554.76;;;0.41;78.32
67987;BME280;54767;53.800;15.956;2023-03-01T09:03:50;101548.49;;;0.49;78.46
67987;BME280;54767;53.800;15.956;2023-03-01T09:06:18;101546.64;;;0.54;78.54
67987;BME280;54767;53.800;15.956;2023-03-01T09:08:48;101541.91;;;0.59;78.33
67987;BME280;54767;53.800;15.956;2023-03-01T09:11:20;101544.52;;;0.62;78.39
67987;BME280;54767;53.800;15.956;2023-03-01T09:13:49;101547.39;;;0.66;78.31
67987;BME280;54767;53.800;15.956;2023-03-01T09:16:19;101549.84;;;0.73;78.23
67987;BME280;54767;53.800;15.956;2023-03-01T09:18:52;101546.14;;;0.77;78.10
67987;BME280;54767;53.800;15.956;2023-03-01T09:21:23;101548.02;;;0.82;78.19
67987;BME280;54767;53.800;15.956;2023-03-01T09:24:13;101553.92;;;0.85;78.03
67987;BME280;54767;53.800;15.956;2023-03-01T09:26:42;101553.98;;;0.89;78.37
67987;BME280;54767;53.800;15.956;2023-03-01T09:29:10;101556.52;;;0.94;78.43
67987;BME280;54767;53.800;15.956;2023-03-01T09:31:38;101556.83;;;1.02;78.52
67987;BME280;54767;53.800;15.956;2023-03-01T09:34:07;101552.50;;;1.10;78.54
67987;BME280;54767;53.800;15.956;2023-03-01T09:36:36;101548.19;;;1.16;78.43
67987;BME280;54767;53.800;15.956;2023-03-01T09:39:04;101544.73;;;1.21;78.32
67987;BME280;54767;53.800;15.956;2023-03-01T09:46:44;101541.37;;;1.37;78.57
67987;BME280;54767;53.800;15.956;2023-03-01T09:49:19;101537.07;;;1.40;78.43
67987;BME280;54767;53.800;15.956;2023-03-01T09:52:15;101535.45;;;1.44;78.47
67987;BME280;54767;53.800;15.956;2023-03-01T09:54:54;101529.35;;;1.52;78.28
67987;BME280;54767;53.800;15.956;2023-03-01T09:57:38;101524.67;;;1.58;78.49
67987;BME280;54767;53.800;15.956;2023-03-01T10:00:24;101521.55;;;1.63;78.32
67987;BME280;54767;53.800;15.956;2023-03-01T10:03:22;101518.72;;;1.68;78.53
67987;BME280;54767;53.800;15.956;2023-03-01T10:06:01;101517.51;;;1.74;78.73
67987;BME280;54767;53.800;15.956;2023-03-01T10:08:57;101515.22;;;1.82;78.58
67987;BME280;54767;53.800;15.956;2023-03-01T10:11:38;101515.05;;;1.91;78.65
67987;BME280;54767;53.800;15.956;2023-03-01T10:15:20;101516.97;;;1.98;78.68
67987;BME280;54767;53.800;15.956;2023-03-01T10:19:55;101519.72;;;2.10;78.94
67987;BME280;54767;53.800;15.956;2023-03-01T10:22:28;101515.40;;;2.16;79.12
67987;BME280;54767;53.800;15.956;2023-03-01T10:24:59;101510.98;;;2.23;78.71
67987;BME280;54767;53.800;15.956;2023-03-01T10:27:52;101512.84;;;2.32;78.88
67987;BME280;54767;53.800;15.956;2023-03-01T10:30:35;101508.31;;;2.40;78.97
67987;BME280;54767;53.800;15.956;2023-03-01T10:33:21;101511.95;;;2.46;79.24
67987;BME280;54767;53.800;15.956;2023-03-01T10:35:50;101511.98;;;2.54;78.96
67987;BME280;54767;53.800;15.956;2023-03-01T10:38:19;101510.88;;;2.59;78.97
67987;BME280;54767;53.800;15.956;2023-03-01T10:40:59;101509.33;;;2.65;78.95
67987;BME280;54767;53.800;15.956;2023-03-01T10:46:26;101505.17;;;2.81;79.01
67987;BME280;54767;53.800;15.956;2023-03-01T10:49:14;101503.95;;;2.87;78.82
67987;BME280;54767;53.800;15.956;2023-03-01T10:51:46;101497.67;;;2.93;78.86
67987;BME280;54767;53.800;15.956;2023-03-01T10:54:30;101491.36;;;2.98;78.98
67987;BME280;54767;53.800;15.956;2023-03-01T10:57:04;101488.06;;;3.04;78.77
67987;BME280;54767;53.800;15.956;2023-03-01T10:59:35;101488.65;;;3.12;78.80
67987;BME280;54767;53.800;15.956;2023-03-01T11:07:51;101487.73;;;3.34;78.96
67987;BME280;54767;53.800;15.956;2023-03-01T11:12:51;101479.91;;;3.47;79.21
67987;BME280;54767;53.800;15.956;2023-03-01T11:15:20;101477.50;;;3.55;79.14
67987;BME280;54767;53.800;15.956;2023-03-01T11:17:49;101478.52;;;3.61;79.20
67987;BME280;54767;53.800;15.956;2023-03-01T11:20:35;101477.74;;;3.70;79.21
67987;BME280;54767;53.800;15.956;2023-03-01T11:23:09;101474.50;;;3.78;79.20
67987;BME280;54767;53.800;15.956;2023-03-01T11:25:46;101476.68;;;3.83;79.01
67987;BME280;54767;53.800;15.956;2023-03-01T11:28:20;101480.73;;;3.88;78.79
67987;BME280;54767;53.800;15.956;2023-03-01T11:31:06;101476.67;;;3.94;78.98
67987;BME280;54767;53.800;15.956;2023-03-01T11:42:12;101478.23;;;4.26;78.66
67987;BME280;54767;53.800;15.956;2023-03-01T11:44:51;101476.23;;;4.32;78.66
67987;BME280;54767;53.800;15.956;2023-03-01T11:52:53;101472.96;;;4.51;78.51
67987;BME280;54767;53.800;15.956;2023-03-01T12:01:14;101459.98;;;4.78;77.71
67987;BME280;54767;53.800;15.956;2023-03-01T12:06:55;101461.91;;;4.90;78.16
67987;BME280;54767;53.800;15.956;2023-03-01T12:12:48;101447.38;;;4.99;77.52
67987;BME280;54767;53.800;15.956;2023-03-01T12:15:17;101450.99;;;5.06;77.26
67987;BME280;54767;53.800;15.956;2023-03-01T12:21:09;101442.63;;;5.17;76.82
67987;BME280;54767;53.800;15.956;2023-03-01T12:29:19;101443.78;;;5.32;76.88
67987;BME280;54767;53.800;15.956;2023-03-01T12:40:17;101429.98;;;5.55;76.92
67987;BME280;54767;53.800;15.956;2023-03-01T12:50:47;101423.33;;;5.66;76.00
67987;BME280;54767;53.800;15.956;2023-03-01T12:54:05;101423.26;;;5.69;75.89
67987;BME280;54767;53.800;15.956;2023-03-01T12:56:28;101426.61;;;5.70;75.08
67987;BME280;54767;53.800;15.956;2023-03-01T12:59:26;101424.59;;;5.72;74.79
67987;BME280;54767;53.800;15.956;2023-03-01T13:07:28;101420.61;;;5.73;74.30
67987;BME280;54767;53.800;15.956;2023-03-01T13:20:51;101415.77;;;5.81;75.00
67987;BME280;54767;53.800;15.956;2023-03-01T13:31:00;101414.55;;;5.90;74.18
67987;BME280;54767;53.800;15.956;2023-03-01T13:35:58;101412.01;;;5.91;73.15
67987;BME280;54767;53.800;15.956;2023-03-01T13:38:55;101418.65;;;5.88;72.53
67987;BME280;54767;53.800;15.956;2023-03-01T13:49:46;101412.47;;;5.81;72.35
67987;BME280;54767;53.800;15.956;2023-03-01T13:57:45;101405.18;;;5.77;71.96
67987;BME280;54767;53.800;15.956;2023-03-01T14:03:06;101390.39;;;5.72;70.59
67987;BME280;54767;53.800;15.956;2023-03-01T14:05:38;101388.20;;;5.70;70.25
67987;BME280;54767;53.800;15.956;2023-03-01T14:08:22;101386.77;;;5.68;70.76
67987;BME280;54767;53.800;15.956;2023-03-01T14:10:58;101387.92;;;5.67;70.84
67987;BME280;54767;53.800;15.956;2023-03-01T14:19:21;101372.80;;;5.66;70.92
67987;BME280;54767;53.800;15.956;2023-03-01T14:22:13;101369.13;;;5.66;70.64
67987;BME280;54767;53.800;15.956;2023-03-01T14:25:06;101367.27;;;5.63;69.80
67987;BME280;54767;53.800;15.956;2023-03-01T14:27:44;101362.69;;;5.61;70.36
67987;BME280;54767;53.800;15.956;2023-03-01T14:30:27;101357.46;;;5.61;70.60
67987;BME280;54767;53.800;15.956;2023-03-01T14:33:01;101351.77;;;5.61;70.23
67987;BME280;54767;53.800;15.956;2023-03-01T14:35:32;101348.85;;;5.62;70.17
67987;BME280;54767;53.800;15.956;2023-03-01T14:38:03;101345.00;;;5.62;70.39
67987;BME280;54767;53.800;15.956;2023-03-01T14:40:35;101340.97;;;5.61;70.44
67987;BME280;54767;53.800;15.956;2023-03-01T14:43:10;101339.34;;;5.59;70.27
67987;BME280;54767;53.800;15.956;2023-03-01T14:45:39;101337.00;;;5.57;69.98
67987;BME280;54767;53.800;15.956;2023-03-01T14:48:07;101335.53;;;5.55;69.57
67987;BME280;54767;53.800;15.956;2023-03-01T14:50:41;101340.14;;;5.53;69.29
67987;BME280;54767;53.800;15.956;2023-03-01T14:53:19;101345.41;;;5.50;69.49
67987;BME280;54767;53.800;15.956;2023-03-01T14:55:52;101342.03;;;5.48;69.10
67987;BME280;54767;53.800;15.956;2023-03-01T14:58:23;101338.72;;;5.48;69.25
67987;BME280;54767;53.800;15.956;2023-03-01T15:00:55;101336.17;;;5.45;69.19
67987;BME280;54767;53.800;15.956;2023-03-01T15:03:35;101336.86;;;5.45;69.44
67987;BME280;54767;53.800;15.956;2023-03-01T15:06:07;101337.67;;;5.43;69.22
67987;BME280;54767;53.800;15.956;2023-03-01T15:08:37;101339.14;;;5.41;69.13
67987;BME280;54767;53.800;15.956;2023-03-01T15:11:22;101341.67;;;5.39;69.30
67987;BME280;54767;53.800;15.956;2023-03-01T15:13:53;101337.16;;;5.35;69.63
67987;BME280;54767;53.800;15.956;2023-03-01T15:16:32;101331.62;;;5.31;69.59
67987;BME280;54767;53.800;15.956;2023-03-01T15:19:06;101327.11;;;5.27;69.37
67987;BME280;54767;53.800;15.956;2023-03-01T15:21:37;101326.55;;;5.26;69.20
67987;BME280;54767;53.800;15.956;2023-03-01T15:26:55;101314.58;;;5.26;69.64
67987;BME280;54767;53.800;15.956;2023-03-01T15:29:28;101315.39;;;5.25;69.59
67987;BME280;54767;53.800;15.956;2023-03-01T15:32:28;101313.23;;;5.23;69.60
67987;BME280;54767;53.800;15.956;2023-03-01T15:34:58;101307.86;;;5.19;69.84
67987;BME280;54767;53.800;15.956;2023-03-01T15:37:48;101314.40;;;5.13;70.00
67987;BME280;54767;53.800;15.956;2023-03-01T15:42:52;101315.27;;;5.01;70.16
67987;BME280;54767;53.800;15.956;2023-03-01T15:45:24;101310.78;;;4.97;70.14
67987;BME280;54767;53.800;15.956;2023-03-01T15:48:00;101313.19;;;4.93;70.42
67987;BME280;54767;53.800;15.956;2023-03-01T15:50:34;101313.56;;;4.89;70.42
67987;BME280;54767;53.800;15.956;2023-03-01T15:53:06;101310.52;;;4.87;70.45
67987;BME280;54767;53.800;15.956;2023-03-01T15:55:35;101310.27;;;4.85;70.45
67987;BME280;54767;53.800;15.956;2023-03-01T15:58:15;101311.39;;;4.83;70.38
67987;BME280;54767;53.800;15.956;2023-03-01T16:00:45;101312.89;;;4.82;70.55
67987;BME280;54767;53.800;15.956;2023-03-01T16:03:28;101318.60;;;4.77;70.56
67987;BME280;54767;53.800;15.956;2023-03-01T16:05:56;101315.60;;;4.72;70.66
67987;BME280;54767;53.800;15.956;2023-03-01T16:08:24;101321.83;;;4.68;70.48
67987;BME280;54767;53.800;15.956;2023-03-01T16:10:53;101318.79;;;4.62;70.54
67987;BME280;54767;53.800;15.956;2023-03-01T16:13:22;101324.94;;;4.55;70.63
67987;BME280;54767;53.800;15.956;2023-03-01T16:15:51;101320.45;;;4.48;70.47
67987;BME280;54767;53.800;15.956;2023-03-01T16:18:19;101317.95;;;4.42;70.62
67987;BME280;54767;53.800;15.956;2023-03-01T16:20:47;101316.52;;;4.37;70.83
67987;BME280;54767;53.800;15.956;2023-03-01T16:23:17;101315.11;;;4.33;70.90
67987;BME280;54767;53.800;15.956;2023-03-01T16:25:45;101319.80;;;4.29;70.92
67987;BME280;54767;53.800;15.956;2023-03-01T16:28:13;101320.50;;;4.25;71.07
67987;BME280;54767;53.800;15.956;2023-03-01T16:30:46;101324.15;;;4.22;71.39
67987;BME280;54767;53.800;15.956;2023-03-01T16:33:16;101335.16;;;4.16;71.31
67987;BME280;54767;53.800;15.956;2023-03-01T16:36:07;101336.42;;;4.10;71.68
67987;BME280;54767;53.800;15.956;2023-03-01T16:38:36;101342.58;;;4.04;71.61
67987;BME280;54767;53.800;15.956;2023-03-01T16:41:05;101348.08;;;4.00;71.52
67987;BME280;54767;53.800;15.956;2023-03-01T16:43:33;101345.96;;;3.95;71.56
67987;BME280;54767;53.800;15.956;2023-03-01T16:46:01;101345.67;;;3.93;71.69
67987;BME280;54767;53.800;15.956;2023-03-01T16:48:32;101343.26;;;3.89;71.76
67987;BME280;54767;53.800;15.956;2023-03-01T16:51:00;101347.41;;;3.85;71.66
67987;BME280;54767;53.800;15.956;2023-03-01T16:53:29;101344.21;;;3.80;71.85
67987;BME280;54767;53.800;15.956;2023-03-01T16:55:58;101348.73;;;3.77;72.09
67987;BME280;54767;53.800;15.956;2023-03-01T16:58:26;101348.73;;;3.73;72.21
67987;BME280;54767;53.800;15.956;2023-03-01T17:00:55;101352.48;;;3.68;72.33
67987;BME280;54767;53.800;15.956;2023-03-01T17:03:24;101357.02;;;3.62;72.63
67987;BME280;54767;53.800;15.956;2023-03-01T17:05:54;101353.06;;;3.55;72.60
67987;BME280;54767;53.800;15.956;2023-03-01T17:08:22;101354.20;;;3.50;72.75
67987;BME280;54767;53.800;15.956;2023-03-01T17:10:50;101360.45;;;3.46;72.54
67987;BME280;54767;53.800;15.956;2023-03-01T17:13:18;101361.71;;;3.44;73.18
67987;BME280;54767;53.800;15.956;2023-03-01T17:15:46;101366.95;;;3.45;73.23
67987;BME280;54767;53.800;15.956;2023-03-01T17:18:14;101367.83;;;3.45;73.44
67987;BME280;54767;53.800;15.956;2023-03-01T17:20:42;101369.23;;;3.42;73.07
67987;BME280;54767;53.800;15.956;2023-03-01T17:23:10;101368.59;;;3.39;73.73
67987;BME280;54767;53.800;15.956;2023-03-01T17:25:43;101368.54;;;3.38;73.83
67987;BME280;54767;53.800;15.956;2023-03-01T17:28:13;101367.98;;;3.38;73.74
67987;BME280;54767;53.800;15.956;2023-03-01T17:30:44;101372.90;;;3.39;73.65
67987;BME280;54767;53.800;15.956;2023-03-01T17:33:15;101378.27;;;3.39;73.76
67987;BME280;54767;53.800;15.956;2023-03-01T17:35:43;101381.65;;;3.38;73.61
67987;BME280;54767;53.800;15.956;2023-03-01T17:38:14;101384.82;;;3.35;73.50
67987;BME280;54767;53.800;15.956;2023-03-01T17:40:43;101383.83;;;3.32;73.54
67987;BME280;54767;53.800;15.956;2023-03-01T17:43:16;101385.30;;;3.28;73.67
67987;BME280;54767;53.800;15.956;2023-03-01T17:45:44;101388.48;;;3.22;73.91
67987;BME280;54767;53.800;15.956;2023-03-01T17:48:15;101395.36;;;3.11;73.99
67987;BME280;54767;53.800;15.956;2023-03-01T17:50:44;101399.78;;;3.03;74.42
67987;BME280;54767;53.800;15.956;2023-03-01T17:53:13;101404.27;;;2.96;74.56
67987;BME280;54767;53.800;15.956;2023-03-01T17:55:42;101398.59;;;2.92;74.72
67987;BME280;54767;53.800;15.956;2023-03-01T17:58:13;101399.23;;;2.92;74.70
67987;BME280;54767;53.800;15.956;2023-03-01T18:00:41;101398.53;;;2.88;74.74
67987;BME280;54767;53.800;15.956;2023-03-01T18:03:09;101399.44;;;2.82;74.76
67987;BME280;54767;53.800;15.956;2023-03-01T18:05:37;101398.55;;;2.72;74.65
67987;BME280;54767;53.800;15.956;2023-03-01T18:08:06;101401.55;;;2.60;75.19
67987;BME280;54767;53.800;15.956;2023-03-01T18:10:34;101402.02;;;2.52;75.49
67987;BME280;54767;53.800;15.956;2023-03-01T18:13:04;101400.31;;;2.46;75.63
67987;BME280;54767;53.800;15.956;2023-03-01T18:15:33;101398.73;;;2.43;75.55
67987;BME280;54767;53.800;15.956;2023-03-01T18:18:01;101397.89;;;2.43;75.99
67987;BME280;54767;53.800;15.956;2023-03-01T18:20:29;101388.91;;;2.43;76.45
67987;BME280;54767;53.800;15.956;2023-03-01T18:22:59;101386.57;;;2.41;76.33
67987;BME280;54767;53.800;15.956;2023-03-01T18:25:29;101386.20;;;2.38;76.66
67987;BME280;54767;53.800;15.956;2023-03-01T18:27:57;101388.41;;;2.34;76.88
67987;BME280;54767;53.800;15.956;2023-03-01T18:30:25;101388.66;;;2.32;77.19
67987;BME280;54767;53.800;15.956;2023-03-01T18:32:55;101391.66;;;2.27;77.13
67987;BME280;54767;53.800;15.956;2023-03-01T18:35:23;101388.59;;;2.17;77.46
67987;BME280;54767;53.800;15.956;2023-03-01T18:37:51;101379.61;;;2.12;77.45
67987;BME280;54767;53.800;15.956;2023-03-01T18:40:20;101381.89;;;2.09;77.92
67987;BME280;54767;53.800;15.956;2023-03-01T18:42:48;101385.41;;;2.01;78.27
67987;BME280;54767;53.800;15.956;2023-03-01T18:45:16;101379.75;;;1.95;78.20
67987;BME280;54767;53.800;15.956;2023-03-01T18:47:46;101385.53;;;1.94;78.34
67987;BME280;54767;53.800;15.956;2023-03-01T18:50:17;101385.49;;;1.90;78.36
67987;BME280;54767;53.800;15.956;2023-03-01T18:52:45;101382.89;;;1.93;78.82
67987;BME280;54767;53.800;15.956;2023-03-01T18:55:13;101382.23;;;1.96;78.86
67987;BME280;54767;53.800;15.956;2023-03-01T18:57:42;101391.37;;;1.99;78.65
67987;BME280;54767;53.800;15.956;2023-03-01T19:00:11;101388.90;;;1.98;78.74
67987;BME280;54767;53.800;15.956;2023-03-01T19:02:39;101393.94;;;1.99;78.82
67987;BME280;54767;53.800;15.956;2023-03-01T19:05:09;101389.98;;;1.96;78.86
67987;BME280;54767;53.800;15.956;2023-03-01T19:07:37;101393.96;;;1.96;78.55
67987;BME280;54767;53.800;15.956;2023-03-01T19:10:06;101399.41;;;1.98;78.80
67987;BME280;54767;53.800;15.956;2023-03-01T19:12:35;101395.98;;;2.01;78.60
67987;BME280;54767;53.800;15.956;2023-03-01T19:15:04;101402.20;;;2.05;78.82
67987;BME280;54767;53.800;15.956;2023-03-01T19:17:33;101398.25;;;2.08;78.62
67987;BME280;54767;53.800;15.956;2023-03-01T19:20:01;101396.40;;;2.06;78.78
67987;BME280;54767;53.800;15.956;2023-03-01T19:22:30;101402.13;;;2.00;78.74
67987;BME280;54767;53.800;15.956;2023-03-01T19:24:58;101401.86;;;2.02;78.87
67987;BME280;54767;53.800;15.956;2023-03-01T19:27:26;101400.70;;;2.09;78.86
67987;BME280;54767;53.800;15.956;2023-03-01T19:29:54;101401.38;;;2.15;78.94
67987;BME280;54767;53.800;15.956;2023-03-01T19:32:22;101403.38;;;2.14;78.85
67987;BME280;54767;53.800;15.956;2023-03-01T19:34:51;101401.20;;;2.15;78.95
67987;BME280;54767;53.800;15.956;2023-03-01T19:37:19;101402.23;;;2.15;79.00
67987;BME280;54767;53.800;15.956;2023-03-01T19:39:47;101400.17;;;2.15;78.94
67987;BME280;54767;53.800;15.956;2023-03-01T19:42:15;101398.52;;;2.13;78.61
67987;BME280;54767;53.800;15.956;2023-03-01T19:44:43;101397.49;;;2.07;78.56
67987;BME280;54767;53.800;15.956;2023-03-01T19:47:11;101401.71;;;2.02;78.92
67987;BME280;54767;53.800;15.956;2023-03-01T19:49:39;101399.00;;;2.00;78.98
67987;BME280;54767;53.800;15.956;2023-03-01T19:52:09;101399.84;;;1.99;79.15
67987;BME280;54767;53.800;15.956;2023-03-01T19:54:37;101399.79;;;1.98;79.37
67987;BME280;54767;53.800;15.956;2023-03-01T19:57:05;101406.00;;;1.95;79.29
67987;BME280;54767;53.800;15.956;2023-03-01T19:59:33;101398.59;;;1.92;79.37
67987;BME280;54767;53.800;15.956;2023-03-01T20:02:02;101395.56;;;1.94;79.54
67987;BME280;54767;53.800;15.956;2023-03-01T20:04:30;101397.06;;;1.96;79.66
67987;BME280;54767;53.800;15.956;2023-03-01T20:06:59;101395.27;;;1.95;79.66
67987;BME280;54767;53.800;15.956;2023-03-01T20:09:27;101399.27;;;1.95;79.64
67987;BME280;54767;53.800;15.956;2023-03-01T20:11:56;101399.34;;;1.96;79.66
67987;BME280;54767;53.800;15.956;2023-03-01T20:14:24;101401.38;;;1.93;79.48
67987;BME280;54767;53.800;15.956;2023-03-01T20:16:52;101402.09;;;1.84;79.86
67987;BME280;54767;53.800;15.956;2023-03-01T20:19:20;101403.60;;;1.74;80.01
67987;BME280;54767;53.800;15.956;2023-03-01T20:21:49;101402.80;;;1.72;79.95
67987;BME280;54767;53.800;15.956;2023-03-01T20:24:17;101406.16;;;1.70;80.19
67987;BME280;54767;53.800;15.956;2023-03-01T20:26:46;101405.46;;;1.73;80.39
67987;BME280;54767;53.800;15.956;2023-03-01T20:29:14;101401.61;;;1.78;80.35
67987;BME280;54767;53.800;15.956;2023-03-01T20:31:42;101401.20;;;1.77;80.16
67987;BME280;54767;53.800;15.956;2023-03-01T20:34:12;101402.47;;;1.78;80.49
67987;BME280;54767;53.800;15.956;2023-03-01T20:36:42;101405.29;;;1.76;80.50
67987;BME280;54767;53.800;15.956;2023-03-01T20:39:11;101403.94;;;1.80;80.58
67987;BME280;54767;53.800;15.956;2023-03-01T20:41:39;101403.04;;;1.82;80.51
67987;BME280;54767;53.800;15.956;2023-03-01T20:44:08;101410.55;;;1.84;80.65
67987;BME280;54767;53.800;15.956;2023-03-01T20:46:36;101409.15;;;1.87;80.41
67987;BME280;54767;53.800;15.956;2023-03-01T20:49:05;101411.35;;;1.86;80.26
67987;BME280;54767;53.800;15.956;2023-03-01T20:51:34;101411.56;;;1.87;80.70
67987;BME280;54767;53.800;15.956;2023-03-01T20:54:02;101414.95;;;1.92;80.63
67987;BME280;54767;53.800;15.956;2023-03-01T20:56:32;101419.92;;;1.97;80.60
67987;BME280;54767;53.800;15.956;2023-03-01T20:59:05;101414.06;;;1.97;80.62
67987;BME280;54767;53.800;15.956;2023-03-01T21:01:36;101420.25;;;1.97;80.59
67987;BME280;54767;53.800;15.956;2023-03-01T21:04:05;101421.47;;;1.97;81.02
67987;BME280;54767;53.800;15.956;2023-03-01T21:06:34;101419.36;;;1.99;80.56
67987;BME280;54767;53.800;15.956;2023-03-01T21:09:03;101413.79;;;2.02;80.42
67987;BME280;54767;53.800;15.956;2023-03-01T21:11:32;101409.73;;;2.03;80.55
67987;BME280;54767;53.800;15.956;2023-03-01T21:14:08;101411.88;;;2.05;80.41
67987;BME280;54767;53.800;15.956;2023-03-01T21:16:38;101408.44;;;2.05;80.74
67987;BME280;54767;53.800;15.956;2023-03-01T21:19:08;101405.48;;;2.08;80.42
67987;BME280;54767;53.800;15.956;2023-03-01T21:21:37;101401.05;;;2.12;80.93
67987;BME280;54767;53.800;15.956;2023-03-01T21:24:05;101401.57;;;2.15;80.46
67987;BME280;54767;53.800;15.956;2023-03-01T21:26:37;101399.81;;;2.18;80.61
67987;BME280;54767;53.800;15.956;2023-03-01T21:29:06;101402.98;;;2.22;80.48
67987;BME280;54767;53.800;15.956;2023-03-01T21:31:34;101403.21;;;2.26;80.40
67987;BME280;54767;53.800;15.956;2023-03-01T21:34:04;101402.33;;;2.29;80.31
67987;BME280;54767;53.800;15.956;2023-03-01T21:37:19;101401.90;;;2.28;80.05
67987;BME280;54767;53.800;15.956;2023-03-01T21:39:49;101397.52;;;2.23;80.39
67987;BME280;54767;53.800;15.956;2023-03-01T21:42:17;101395.77;;;2.19;80.40
67987;BME280;54767;53.800;15.956;2023-03-01T21:44:45;101391.29;;;2.14;80.22
67987;BME280;54767;53.800;15.956;2023-03-01T21:47:14;101389.00;;;2.10;80.35
67987;BME280;54767;53.800;15.956;2023-03-01T21:49:42;101390.51;;;2.06;80.58
67987;BME280;54767;53.800;15.956;2023-03-01T21:52:10;101380.74;;;1.97;80.68
67987;BME280;54767;53.800;15.956;2023-03-01T21:54:43;101392.77;;;1.94;80.94
67987;BME280;54767;53.800;15.956;2023-03-01T21:57:12;101391.29;;;1.88;80.98
67987;BME280;54767;53.800;15.956;2023-03-01T21:59:40;101385.85;;;1.87;81.06
67987;BME280;54767;53.800;15.956;2023-03-01T22:02:12;101387.45;;;1.88;81.37
67987;BME280;54767;53.800;15.956;2023-03-01T22:04:41;101384.41;;;1.86;81.39
67987;BME280;54767;53.800;15.956;2023-03-01T22:07:09;101384.05;;;1.85;81.34
67987;BME280;54767;53.800;15.956;2023-03-01T22:09:37;101390.17;;;1.84;81.04